Time;durP1;ratioP1;P1;durP2;ratioP2;P2;SDS_P1;SDS_P2;PMS_P1;PMS_P2;Temp;Humidity;BMP_temperature;BMP_pressure;BME280_temperature;BME280_humidity;BME280_pressure;Samples;Min_cycle;Max_cycle;Signal;HPM_P1;HPM_P2
2023/05/09 00:00:17;;;;;;;0.10;0.10;;;13.20;99.90;;;;;;5077031;28;20016;-73
2023/05/09 00:02:44;;;;;;;0.10;0.10;;;13.30;99.90;;;;;;5077086;28;20036;-73
2023/05/09 00:05:10;;;;;;;0.20;0.20;;;13.30;99.90;;;;;;5077247;28;20012;-72
2023/05/09 00:07:36;;;;;;;0.20;0.20;;;13.30;99.90;;;;;;5077311;28;20383;-75
2023/05/09 00:10:02;;;;;;;0.10;0.10;;;13.30;99.90;;;;;;5076932;28;20285;-73
2023/05/09 00:12:29;;;;;;;0.10;0.10;;;13.40;99.90;;;;;;5077061;28;20028;-80
2023/05/09 00:14:55;;;;;;;0.15;0.15;;;13.40;99.90;;;;;;5076916;28;20031;-73
2023/05/09 00:17:22;;;;;;;0.10;0.10;;;13.40;99.90;;;;;;5076824;28;20444;-72
2023/05/09 00:19:51;;;;;;;0.10;0.10;;;13.30;99.90;;;;;;5075625;28;20024;-73
2023/05/09 00:22:20;;;;;;;0.10;0.10;;;13.30;99.90;;;;;;5076741;28;20316;-80
2023/05/09 00:24:49;;;;;;;2.22;2.13;;;13.30;99.90;;;;;;5077098;28;20366;-73
2023/05/09 00:27:15;;;;;;;2.03;1.92;;;13.30;99.90;;;;;;5077306;28;20095;-73
2023/05/09 00:29:41;;;;;;;0.20;0.20;;;13.40;99.90;;;;;;5077476;28;20020;-73
2023/05/09 00:32:07;;;;;;;0.10;0.10;;;13.40;99.90;;;;;;5077578;28;20157;-73
2023/05/09 00:34:33;;;;;;;0.20;0.20;;;13.40;99.90;;;;;;5077010;28;20111;-77
2023/05/09 00:36:59;;;;;;;0.20;0.20;;;13.40;99.90;;;;;;5079168;28;20031;-79
2023/05/09 00:39:25;;;;;;;0.20;0.20;;;13.50;99.90;;;;;;5081425;28;20035;-80
2023/05/09 00:41:51;;;;;;;0.10;0.10;;;13.40;99.90;;;;;;5081545;28;20023;-79
2023/05/09 00:44:17;;;;;;;0.10;0.10;;;12.10;99.90;;;;;;5081706;28;20671;-82
2023/05/09 00:46:43;;;;;;;0.20;0.20;;;13.50;99.90;;;;;;5081199;28;20074;-78
2023/05/09 00:49:09;;;;;;;0.20;0.20;;;13.50;99.90;;;;;;5081224;28;20134;-73
2023/05/09 00:51:36;;;;;;;0.10;0.10;;;13.50;99.90;;;;;;5080989;28;20024;-74
2023/05/09 00:54:02;;;;;;;0.10;0.10;;;13.50;99.90;;;;;;5080753;28;20376;-73
2023/05/09 00:56:27;;;;;;;0.20;0.20;;;13.50;99.90;;;;;;5080806;28;20070;-72
2023/05/09 00:58:54;;;;;;;0.20;0.20;;;13.50;99.90;;;;;;5079295;28;20102;-73
2023/05/09 01:01:20;;;;;;;0.10;0.10;;;13.50;99.90;;;;;;5080522;28;20020;-73
2023/05/09 01:03:46;;;;;;;0.20;0.20;;;13.50;99.90;;;;;;5080612;28;20035;-73
2023/05/09 01:06:38;;;;;;;0.20;0.20;;;13.40;99.90;;;;;;5080749;28;20016;-78
2023/05/09 01:09:10;;;;;;;0.10;0.10;;;13.30;99.90;;;;;;5080729;28;20021;-76
2023/05/09 01:12:17;;;;;;;0.10;0.10;;;13.40;99.90;;;;;;5080388;28;20095;-74
2023/05/09 01:15:18;;;;;;;0.10;0.10;;;13.30;99.90;;;;;;5080518;28;20113;-74
2023/05/09 01:17:59;;;;;;;0.20;0.20;;;13.20;99.90;;;;;;5000635;28;20029;-73
2023/05/09 01:20:38;;;;;;;0.20;0.20;;;13.20;99.90;;;;;;5017172;28;20365;-73
2023/05/09 01:23:24;;;;;;;0.20;0.20;;;13.10;99.90;;;;;;5017200;28;20046;-74
2023/05/09 01:26:24;;;;;;;0.20;0.20;;;13.00;99.90;;;;;;5017228;28;20025;-73
2023/05/09 01:29:05;;;;;;;0.38;0.38;;;13.00;99.90;;;;;;5017095;28;20026;-75
2023/05/09 01:31:33;;;;;;;2.30;2.20;;;13.00;99.90;;;;;;5017091;28;20025;-73
2023/05/09 01:34:01;;;;;;;0.10;0.10;;;11.30;99.90;;;;;;5017001;28;20061;-74
2023/05/09 01:36:31;;;;;;;0.10;0.10;;;13.00;99.90;;;;;;5017252;28;20025;-73
2023/05/09 01:39:00;;;;;;;0.10;0.10;;;13.00;99.90;;;;;;5017011;28;20534;-72
2023/05/09 01:41:30;;;;;;;0.10;0.10;;;12.90;99.90;;;;;;5016864;28;20146;-77
2023/05/09 01:44:00;;;;;;;0.10;0.10;;;12.80;99.90;;;;;;5017879;28;20029;-73
2023/05/09 01:46:27;;;;;;;0.20;0.20;;;12.90;99.90;;;;;;5016757;28;20111;-73
2023/05/09 01:48:54;;;;;;;0.10;0.10;;;12.80;99.90;;;;;;5016607;28;20041;-72
2023/05/09 01:51:21;;;;;;;0.10;0.10;;;12.80;99.90;;;;;;5016961;28;20021;-74
2023/05/09 01:53:49;;;;;;;0.10;0.10;;;12.80;99.90;;;;;;5036954;28;20040;-73
2023/05/09 01:56:16;;;;;;;0.15;0.15;;;12.80;99.90;;;;;;5080224;28;20013;-76
2023/05/09 01:58:44;;;;;;;0.10;0.10;;;12.80;99.90;;;;;;5079916;28;20059;-73
2023/05/09 02:01:13;;;;;;;0.10;0.10;;;12.70;99.90;;;;;;5078370;28;20047;-73
2023/05/09 02:03:44;;;;;;;0.10;0.10;;;12.70;99.90;;;;;;5079697;28;20092;-74
2023/05/09 02:06:10;;;;;;;0.17;0.17;;;12.80;99.90;;;;;;5079883;28;20089;-72
2023/05/09 02:08:36;;;;;;;0.20;0.20;;;12.80;99.90;;;;;;5079602;28;20053;-77
2023/05/09 02:11:03;;;;;;;0.20;0.20;;;12.80;99.90;;;;;;5079986;28;20103;-78
2023/05/09 02:13:29;;;;;;;0.25;0.25;;;12.80;99.90;;;;;;5079970;28;20032;-72
2023/05/09 02:15:56;;;;;;;0.68;0.68;;;12.70;99.90;;;;;;5079572;28;20020;-78
2023/05/09 02:18:22;;;;;;;0.10;0.10;;;12.70;99.90;;;;;;5079431;28;20288;-73
2023/05/09 02:20:48;;;;;;;0.10;0.10;;;12.70;99.90;;;;;;5079506;28;20498;-72
2023/05/09 02:23:13;;;;;;;0.10;0.10;;;12.70;99.90;;;;;;5079337;28;20087;-73
2023/05/09 02:25:40;;;;;;;0.10;0.10;;;12.70;99.90;;;;;;5079482;28;20016;-72
2023/05/09 02:28:07;;;;;;;0.20;0.20;;;12.70;99.90;;;;;;5079555;28;20445;-72
2023/05/09 02:30:39;;;;;;;0.10;0.10;;;12.70;99.90;;;;;;5078165;28;20074;-73
2023/05/09 02:33:07;;;;;;;0.10;0.10;;;12.70;99.90;;;;;;5078432;28;20327;-75
2023/05/09 02:35:34;;;;;;;0.10;0.10;;;12.70;99.90;;;;;;5079776;28;20236;-74
2023/05/09 02:38:00;;;;;;;0.20;0.20;;;12.80;99.90;;;;;;5078228;28;20115;-74
2023/05/09 02:40:28;;;;;;;0.20;0.20;;;12.80;99.90;;;;;;5079823;28;20032;-75
2023/05/09 02:42:54;;;;;;;0.15;0.15;;;12.70;99.90;;;;;;5079612;28;20460;-77
2023/05/09 02:45:20;;;;;;;0.40;0.40;;;12.70;99.90;;;;;;5079265;28;20016;-79
2023/05/09 02:47:46;;;;;;;0.55;0.55;;;12.70;99.90;;;;;;5079161;28;20050;-73
2023/05/09 02:50:11;;;;;;;0.10;0.10;;;12.60;99.90;;;;;;5078918;28;20028;-72
2023/05/09 02:52:37;;;;;;;0.20;0.20;;;12.60;99.90;;;;;;5078636;28;20039;-76
2023/05/09 02:55:06;;;;;;;0.10;0.10;;;12.60;99.90;;;;;;5076699;28;20041;-79
2023/05/09 02:57:33;;;;;;;0.30;0.30;;;12.60;99.90;;;;;;5078568;28;20358;-76
2023/05/09 03:00:08;;;;;;;0.10;0.10;;;12.60;99.90;;;;;;5079340;28;20107;-73
2023/05/09 03:02:34;;;;;;;0.17;0.17;;;12.60;99.90;;;;;;5077041;28;20454;-73
2023/05/09 03:05:00;;;;;;;0.10;0.10;;;12.60;99.90;;;;;;5079269;28;20020;-76
2023/05/09 03:07:26;;;;;;;0.10;0.10;;;12.60;99.90;;;;;;5080774;28;20047;-73
2023/05/09 03:09:52;;;;;;;0.20;0.20;;;12.60;99.90;;;;;;5081385;28;20304;-73
2023/05/09 03:12:17;;;;;;;0.10;0.10;;;12.60;99.90;;;;;;5082494;28;20430;-74
2023/05/09 03:14:43;;;;;;;0.10;0.10;;;12.50;99.90;;;;;;5080672;28;20241;-72
2023/05/09 03:17:09;;;;;;;0.10;0.10;;;12.70;99.90;;;;;;5079684;28;20024;-75
2023/05/09 03:19:35;;;;;;;0.10;0.10;;;12.70;99.90;;;;;;5078105;28;20032;-78
2023/05/09 03:22:00;;;;;;;0.20;0.20;;;12.70;99.90;;;;;;5077692;28;20024;-73
2023/05/09 03:24:29;;;;;;;0.15;0.15;;;12.80;99.90;;;;;;5078284;28;20062;-77
2023/05/09 03:26:55;;;;;;;0.13;0.13;;;12.80;99.90;;;;;;5078417;28;20229;-73
2023/05/09 03:29:20;;;;;;;0.20;0.20;;;12.80;99.90;;;;;;5078149;28;20054;-72
2023/05/09 03:31:46;;;;;;;0.20;0.20;;;12.90;99.90;;;;;;5078042;28;20674;-75
2023/05/09 03:34:13;;;;;;;0.20;0.20;;;12.80;99.90;;;;;;5077985;28;20490;-72
2023/05/09 03:36:43;;;;;;;0.20;0.20;;;12.90;99.90;;;;;;5077932;28;20012;-72
2023/05/09 03:39:09;;;;;;;0.20;0.20;;;12.90;99.90;;;;;;5078117;28;20020;-72
2023/05/09 03:41:35;;;;;;;0.15;0.15;;;;;;;;;;5077595;28;20364;-73
2023/05/09 03:44:02;;;;;;;0.17;0.17;;;12.80;99.90;;;;;;5077791;28;20758;-73
2023/05/09 03:46:28;;;;;;;0.10;0.10;;;12.70;99.90;;;;;;5077955;28;20521;-72
2023/05/09 03:48:54;;;;;;;0.10;0.10;;;12.80;99.90;;;;;;5075929;28;20028;-75
2023/05/09 03:51:20;;;;;;;0.10;0.10;;;12.70;99.90;;;;;;5077805;28;20588;-81
2023/05/09 03:53:46;;;;;;;0.10;0.10;;;12.70;99.90;;;;;;5077813;28;20230;-73
2023/05/09 03:56:13;;;;;;;0.10;0.10;;;12.60;99.90;;;;;;5078405;28;20307;-78
2023/05/09 03:58:38;;;;;;;0.75;0.75;;;12.70;99.90;;;;;;5078173;28;20031;-75
2023/05/09 04:01:04;;;;;;;9.75;4.78;;;12.40;99.90;;;;;;5078181;28;20021;-73
2023/05/09 04:03:30;;;;;;;0.20;0.20;;;12.80;99.90;;;;;;5077518;28;20028;-73
2023/05/09 04:05:56;;;;;;;0.10;0.10;;;12.80;99.90;;;;;;5077251;28;20020;-72
2023/05/09 04:08:22;;;;;;;4.15;3.92;;;12.80;99.90;;;;;;5077118;28;20453;-72
2023/05/09 04:10:49;;;;;;;2.28;2.17;;;12.80;99.90;;;;;;5077835;28;20024;-73
2023/05/09 04:13:15;;;;;;;874.55;399.77;;;12.80;99.90;;;;;;5079080;28;20320;-73
2023/05/09 04:15:41;;;;;;;2.28;2.17;;;12.70;99.90;;;;;;5079084;28;20304;-73
2023/05/09 04:18:07;;;;;;;0.88;0.88;;;12.70;99.90;;;;;;5077891;28;20522;-72
2023/05/09 04:20:33;;;;;;;10.68;9.93;;;12.70;99.90;;;;;;5077483;28;20506;-74
2023/05/09 04:22:59;;;;;;;2.17;2.08;;;12.80;99.90;;;;;;5077553;28;20499;-72
2023/05/09 04:25:25;;;;;;;2.25;2.15;;;12.80;99.90;;;;;;5077703;28;20233;-72
2023/05/09 04:27:52;;;;;;;0.25;0.25;;;12.80;99.90;;;;;;5077898;28;20024;-73
2023/05/09 04:30:18;;;;;;;3.28;3.08;;;12.80;99.90;;;;;;5077543;28;20035;-77
2023/05/09 04:32:44;;;;;;;0.20;0.20;;;12.80;99.90;;;;;;5077678;28;20028;-74
2023/05/09 04:35:11;;;;;;;0.15;0.15;;;12.80;99.90;;;;;;5075899;28;20197;-75
2023/05/09 04:37:37;;;;;;;0.10;0.10;;;12.80;99.90;;;;;;5077440;28;20091;-78
2023/05/09 04:40:04;;;;;;;0.20;0.20;;;12.90;99.90;;;;;;5076763;28;20111;-78
2023/05/09 04:42:32;;;;;;;0.10;0.10;;;12.90;99.90;;;;;;5077176;28;20032;-74
2023/05/09 04:44:58;;;;;;;0.20;0.20;;;12.90;99.90;;;;;;5077288;28;20027;-72
2023/05/09 04:47:24;;;;;;;0.20;0.20;;;13.00;99.90;;;;;;5077476;28;20235;-75
2023/05/09 04:49:50;;;;;;;0.10;0.10;;;13.00;99.90;;;;;;5077259;28;20039;-74
2023/05/09 04:52:16;;;;;;;0.20;0.20;;;13.00;99.90;;;;;;5076731;28;20032;-72
2023/05/09 04:54:41;;;;;;;0.20;0.20;;;13.00;99.90;;;;;;5077166;28;20040;-74
2023/05/09 04:57:07;;;;;;;0.17;0.17;;;13.00;99.90;;;;;;5077331;28;20475;-81
2023/05/09 04:59:34;;;;;;;0.10;0.10;;;13.10;99.90;;;;;;5077237;28;20034;-73
2023/05/09 05:02:00;;;;;;;0.20;0.20;;;13.10;99.90;;;;;;5076846;28;20165;-72
2023/05/09 05:04:26;;;;;;;0.20;0.20;;;11.60;99.90;;;;;;5074884;28;20063;-73
2023/05/09 05:06:52;;;;;;;0.17;0.17;;;13.10;99.90;;;;;;5076974;28;20288;-75
2023/05/09 05:09:18;;;;;;;0.20;0.20;;;13.20;99.90;;;;;;5076729;28;20624;-77
2023/05/09 05:11:44;;;;;;;0.20;0.20;;;13.20;99.90;;;;;;5076755;28;20103;-80
2023/05/09 05:14:10;;;;;;;0.17;0.17;;;13.10;99.90;;;;;;5076558;28;20190;-73
2023/05/09 05:16:36;;;;;;;0.10;0.10;;;13.20;99.90;;;;;;5076875;28;20264;-77
2023/05/09 05:19:02;;;;;;;0.60;0.60;;;13.20;99.90;;;;;;5076848;28;20020;-74
2023/05/09 05:21:27;;;;;;;2.08;1.98;;;13.20;99.90;;;;;;5080106;28;20657;-76
2023/05/09 05:23:53;;;;;;;0.32;0.32;;;13.20;99.90;;;;;;5080934;28;20415;-87
2023/05/09 05:26:19;;;;;;;0.20;0.20;;;13.20;99.90;;;;;;5080721;28;20453;-75
2023/05/09 05:28:45;;;;;;;0.20;0.20;;;13.30;99.90;;;;;;5081158;28;20019;-75
2023/05/09 05:31:11;;;;;;;0.10;0.10;;;13.50;99.90;;;;;;5080784;28;20487;-76
2023/05/09 05:33:37;;;;;;;0.25;0.25;;;13.40;99.90;;;;;;5080500;28;20081;-82
2023/05/09 05:36:03;;;;;;;0.20;0.20;;;13.40;99.90;;;;;;5080436;28;20387;-74
2023/05/09 05:38:29;;;;;;;0.20;0.20;;;13.50;99.90;;;;;;5080193;28;20165;-76
2023/05/09 05:40:54;;;;;;;0.10;0.10;;;13.50;99.90;;;;;;5080353;28;20024;-77
2023/05/09 05:43:20;;;;;;;0.10;0.10;;;13.60;99.90;;;;;;5080438;28;20033;-74
2023/05/09 05:45:46;;;;;;;0.20;0.20;;;13.70;99.90;;;;;;5079962;28;20028;-74
2023/05/09 05:48:11;;;;;;;0.10;0.10;;;13.80;99.90;;;;;;5079790;28;20490;-74
2023/05/09 05:50:37;;;;;;;0.20;0.20;;;13.90;99.90;;;;;;5079759;28;20111;-74
2023/05/09 05:53:03;;;;;;;0.10;0.10;;;15.80;99.90;;;;;;5077978;28;20332;-73
2023/05/09 05:55:29;;;;;;;0.20;0.20;;;14.10;99.90;;;;;;5078446;28;20044;-74
2023/05/09 05:57:54;;;;;;;2.17;1.45;;;14.20;99.90;;;;;;5079639;28;20030;-75
2023/05/09 06:00:20;;;;;;;0.10;0.10;;;14.40;99.90;;;;;;5079353;28;20656;-74
2023/05/09 06:02:46;;;;;;;0.10;0.10;;;14.40;99.90;;;;;;5079305;28;20024;-74
2023/05/09 06:05:12;;;;;;;0.10;0.10;;;14.50;99.90;;;;;;5079362;28;20085;-76
2023/05/09 06:07:43;;;;;;;0.20;0.20;;;14.50;99.90;;;;;;5079731;28;20116;-75
2023/05/09 06:10:09;;;;;;;0.10;0.10;;;14.70;99.90;;;;;;5079236;28;20107;-72
2023/05/09 06:12:35;;;;;;;0.20;0.20;;;14.70;99.90;;;;;;5078892;28;20031;-71
2023/05/09 06:15:03;;;;;;;0.20;0.20;;;14.90;99.90;;;;;;5078916;28;20020;-73
2023/05/09 06:17:29;;;;;;;0.20;0.20;;;14.90;99.90;;;;;;5078250;28;20531;-72
2023/05/09 06:19:55;;;;;;;0.10;0.10;;;15.00;99.90;;;;;;5079145;28;20016;-79
2023/05/09 06:22:21;;;;;;;0.10;0.10;;;15.20;99.90;;;;;;5079165;28;20483;-78
2023/05/09 06:24:46;;;;;;;0.15;0.15;;;15.10;99.90;;;;;;5079243;28;20070;-74
2023/05/09 06:27:12;;;;;;;0.15;0.15;;;15.30;99.90;;;;;;5079210;28;20311;-72
2023/05/09 06:29:38;;;;;;;0.20;0.20;;;15.40;99.90;;;;;;5078719;28;20510;-79
2023/05/09 06:32:04;;;;;;;0.10;0.10;;;15.40;99.90;;;;;;5078389;28;20081;-88
2023/05/09 06:34:29;;;;;;;0.10;0.10;;;15.40;99.90;;;;;;5078582;28;20548;-72
2023/05/09 06:36:55;;;;;;;0.10;0.10;;;15.20;99.90;;;;;;5078328;28;20204;-72
2023/05/09 06:39:21;;;;;;;0.40;0.40;;;15.20;99.90;;;;;;5078428;28;20024;-76
2023/05/09 06:41:47;;;;;;;0.10;0.10;;;15.30;99.90;;;;;;5078266;28;20032;-74
2023/05/09 06:44:12;;;;;;;0.10;0.10;;;15.40;99.90;;;;;;5078143;28;20032;-77
2023/05/09 06:46:38;;;;;;;0.10;0.10;;;15.50;99.90;;;;;;5078299;28;20062;-75
2023/05/09 06:49:04;;;;;;;0.10;0.10;;;15.60;99.90;;;;;;5077994;28;20085;-79
2023/05/09 06:51:31;;;;;;;0.10;0.10;;;15.60;99.90;;;;;;5077940;28;20019;-74
2023/05/09 06:53:57;;;;;;;0.13;0.13;;;15.60;99.90;;;;;;5078640;28;20090;-78
2023/05/09 06:56:24;;;;;;;0.20;0.20;;;15.60;99.90;;;;;;5078930;28;20097;-75
2023/05/09 06:58:50;;;;;;;0.40;0.40;;;15.70;99.90;;;;;;5079429;28;20518;-75
2023/05/09 07:01:16;;;;;;;0.10;0.10;;;15.80;99.90;;;;;;5079044;28;20059;-74
2023/05/09 07:03:42;;;;;;;0.10;0.10;;;16.00;99.90;;;;;;5078156;28;20033;-74
2023/05/09 07:06:08;;;;;;;0.13;0.13;;;16.20;99.90;;;;;;5076384;28;20028;-74
2023/05/09 07:08:34;;;;;;;0.10;0.10;;;;;;;;;;5078461;28;20019;-76
2023/05/09 07:11:00;;;;;;;0.10;0.10;;;16.50;99.90;;;;;;5077047;28;20051;-75
2023/05/09 07:13:26;;;;;;;0.10;0.10;;;;;;;;;;5078545;28;20402;-74
2023/05/09 07:15:52;;;;;;;0.10;0.10;;;16.50;99.90;;;;;;5078290;28;20070;-76
2023/05/09 07:18:17;;;;;;;0.30;0.30;;;16.60;99.90;;;;;;5077795;28;20772;-74
2023/05/09 07:20:43;;;;;;;0.20;0.20;;;16.90;99.90;;;;;;5078051;28;20565;-74
2023/05/09 07:23:09;;;;;;;0.10;0.10;;;16.70;99.90;;;;;;5078199;28;20097;-76
2023/05/09 07:25:35;;;;;;;0.10;0.10;;;17.00;99.30;;;;;;5078368;28;20021;-74
2023/05/09 07:28:01;;;;;;;0.20;0.20;;;17.30;99.90;;;;;;5078602;28;20024;-74
2023/05/09 07:30:26;;;;;;;0.20;0.20;;;17.30;99.50;;;;;;5078924;28;20023;-74
2023/05/09 07:32:52;;;;;;;0.13;0.13;;;17.50;97.70;;;;;;5079485;28;20024;-74
2023/05/09 07:35:19;;;;;;;0.10;0.10;;;17.90;95.90;;;;;;5079213;28;20012;-74
2023/05/09 07:37:45;;;;;;;0.10;0.10;;;17.70;96.40;;;;;;5078187;28;20099;-75
2023/05/09 07:40:11;;;;;;;0.10;0.10;;;19.80;95.10;;;;;;5078033;28;20099;-82
2023/05/09 07:42:37;;;;;;;0.88;0.88;;;18.00;95.00;;;;;;5078392;28;20021;-74
2023/05/09 07:45:05;;;;;;;0.38;0.38;;;18.10;93.70;;;;;;5079008;28;20024;-78
2023/05/09 07:47:31;;;;;;;0.10;0.10;;;18.20;92.30;;;;;;5078008;28;20541;-73
2023/05/09 07:49:57;;;;;;;0.10;0.10;;;17.80;91.60;;;;;;5079856;28;20129;-80
2023/05/09 07:52:23;;;;;;;0.10;0.10;;;18.20;92.00;;;;;;5080138;28;20686;-78
2023/05/09 07:54:49;;;;;;;0.17;0.17;;;18.50;90.90;;;;;;5079463;28;20075;-72
2023/05/09 07:57:15;;;;;;;0.10;0.10;;;18.60;91.30;;;;;;5077502;28;20111;-77
2023/05/09 07:59:41;;;;;;;0.10;0.10;;;18.90;94.50;;;;;;5079032;28;20031;-76
2023/05/09 08:02:07;;;;;;;0.32;0.32;;;19.00;90.30;;;;;;5079234;28;20039;-75
2023/05/09 08:04:36;;;;;;;0.10;0.10;;;19.20;87.80;;;;;;5078129;28;20080;-78
2023/05/09 08:07:03;;;;;;;0.10;0.10;;;18.40;83.90;;;;;;5078151;28;20012;-73
2023/05/09 08:09:28;;;;;;;0.10;0.10;;;18.60;83.30;;;;;;5077128;28;20119;-73
2023/05/09 08:11:54;;;;;;;0.10;0.10;;;18.50;82.80;;;;;;5078174;28;20052;-74
2023/05/09 08:14:20;;;;;;;0.10;0.10;;;18.60;81.80;;;;;;5078130;28;20020;-87
2023/05/09 08:16:46;;;;;;;0.10;0.10;;;19.00;81.30;;;;;;5077879;28;20078;-73
2023/05/09 08:19:11;;;;;;;0.10;0.10;;;19.30;81.00;;;;;;5077680;28;20013;-78
2023/05/09 08:21:37;;;;;;;0.15;0.15;;;19.10;79.20;;;;;;5077653;28;20025;-75
2023/05/09 08:24:04;;;;;;;0.10;0.10;;;19.20;81.10;;;;;;5077341;28;20164;-79
2023/05/09 08:26:30;;;;;;;0.40;0.40;;;19.30;78.30;;;;;;5077161;28;20561;-75
2023/05/09 08:28:56;;;;;;;0.22;0.22;;;19.60;75.80;;;;;;5077646;28;20112;-73
2023/05/09 08:31:22;;;;;;;0.13;0.13;;;19.50;77.20;;;;;;5077896;28;20054;-81
2023/05/09 08:33:47;;;;;;;2.30;1.40;;;19.70;76.90;;;;;;5077993;28;20092;-73
2023/05/09 08:36:13;;;;;;;0.10;0.10;;;20.10;75.90;;;;;;5078602;28;20020;-79
2023/05/09 08:38:39;;;;;;;0.10;0.10;;;19.90;74.00;;;;;;5078031;28;20032;-79
2023/05/09 08:41:05;;;;;;;0.10;0.10;;;19.70;74.90;;;;;;5077634;28;20073;-78
2023/05/09 08:43:33;;;;;;;0.10;0.10;;;20.00;78.60;;;;;;5078016;28;20086;-74
2023/05/09 08:46:03;;;;;;;0.10;0.10;;;20.40;77.30;;;;;;5077975;28;20043;-72
2023/05/09 08:48:30;;;;;;;0.20;0.20;;;20.80;74.30;;;;;;5078004;28;20039;-73
2023/05/09 08:50:57;;;;;;;0.10;0.10;;;20.40;73.30;;;;;;5077221;28;20656;-74
2023/05/09 08:53:23;;;;;;;0.10;0.10;;;20.80;71.90;;;;;;5077991;28;20027;-79
2023/05/09 08:55:51;;;;;;;0.10;0.10;;;20.60;70.40;;;;;;5080789;28;20107;-78
2023/05/09 08:58:21;;;;;;;0.10;0.10;;;20.70;71.70;;;;;;5081715;28;20039;-73
2023/05/09 09:00:47;;;;;;;0.20;0.20;;;20.60;72.70;;;;;;5081636;28;20077;-73
2023/05/09 09:03:14;;;;;;;0.10;0.10;;;20.90;70.00;;;;;;5081170;28;20032;-74
2023/05/09 09:05:42;;;;;;;0.00;0.00;;;20.90;68.50;;;;;;5081543;28;20749;-80
2023/05/09 09:08:09;;;;;;;0.10;0.10;;;21.20;68.70;;;;;;5080916;28;20784;-73
2023/05/09 09:10:41;;;;;;;0.20;0.20;;;21.00;68.40;;;;;;5080833;28;20024;-75
2023/05/09 09:13:08;;;;;;;0.10;0.10;;;21.00;68.30;;;;;;5081035;28;20726;-73
2023/05/09 09:15:36;;;;;;;0.95;0.95;;;21.20;67.40;;;;;;5081592;28;20017;-76
2023/05/09 09:18:08;;;;;;;0.10;0.10;;;21.30;68.10;;;;;;5081576;28;20052;-73
2023/05/09 09:20:37;;;;;;;0.10;0.10;;;21.60;69.70;;;;;;5083793;28;20017;-74
2023/05/09 09:23:07;;;;;;;0.10;0.10;;;21.10;68.00;;;;;;5084478;28;20089;-74
2023/05/09 09:25:32;;;;;;;0.10;0.10;;;21.40;67.70;;;;;;5084126;28;20016;-75
2023/05/09 09:27:58;;;;;;;0.10;0.10;;;21.30;67.00;;;;;;5084891;28;20055;-72
2023/05/09 09:30:24;;;;;;;0.40;0.32;;;21.10;65.40;;;;;;5088763;28;20036;-74
2023/05/09 09:32:50;;;;;;;0.10;0.10;;;21.20;65.90;;;;;;5085928;28;20103;-73
2023/05/09 09:35:16;;;;;;;1.05;1.05;;;21.10;67.00;;;;;;5085402;28;20012;-73
2023/05/09 09:37:42;;;;;;;0.20;0.20;;;21.30;68.70;;;;;;5084089;28;20028;-73
2023/05/09 09:40:09;;;;;;;0.32;0.32;;;21.20;71.10;;;;;;5083085;28;20535;-74
2023/05/09 09:42:47;;;;;;;0.10;0.10;;;21.20;71.60;;;;;;5082899;28;20028;-81
2023/05/09 09:45:15;;;;;;;0.10;0.10;;;21.20;71.50;;;;;;5083741;28;20016;-74
2023/05/09 09:47:45;;;;;;;0.10;0.10;;;21.00;71.60;;;;;;5084059;28;20031;-74
2023/05/09 09:50:13;;;;;;;0.10;0.10;;;20.90;72.20;;;;;;5083028;28;20012;-74
2023/05/09 09:52:59;;;;;;;0.20;0.20;;;21.00;72.40;;;;;;5083148;28;20136;-74
2023/05/09 09:55:25;;;;;;;0.10;0.10;;;21.10;72.20;;;;;;5083069;28;20678;-74
2023/05/09 09:57:51;;;;;;;0.10;0.10;;;21.00;72.70;;;;;;5082645;28;20028;-74
2023/05/09 10:00:26;;;;;;;0.40;0.40;;;20.90;72.10;;;;;;5081521;28;20016;-73
2023/05/09 10:02:54;;;;;;;0.88;0.85;;;21.10;71.50;;;;;;5082590;28;20718;-74
2023/05/09 10:05:26;;;;;;;0.10;0.10;;;21.20;71.90;;;;;;5083104;28;20024;-73
2023/05/09 10:07:59;;;;;;;0.10;0.10;;;21.20;72.20;;;;;;5081809;28;20016;-74
2023/05/09 10:10:27;;;;;;;0.10;0.10;;;21.30;72.30;;;;;;5084089;28;20023;-77
2023/05/09 10:12:57;;;;;;;0.10;0.10;;;21.40;73.10;;;;;;5081707;28;20126;-74
2023/05/09 10:15:24;;;;;;;0.52;0.50;;;20.80;72.90;;;;;;5081499;28;20024;-81
2023/05/09 10:17:55;;;;;;;0.82;0.82;;;20.50;72.90;;;;;;5082566;28;20077;-75
2023/05/09 10:20:21;;;;;;;0.10;0.10;;;20.50;72.70;;;;;;5083215;28;20119;-76
2023/05/09 10:22:47;;;;;;;0.10;0.10;;;20.30;74.40;;;;;;5081639;28;20043;-77
2023/05/09 10:25:19;;;;;;;29.90;4.20;;;20.40;74.00;;;;;;5079934;28;20020;-73
2023/05/09 10:27:46;;;;;;;0.10;0.10;;;20.20;74.90;;;;;;5083263;28;20028;-74
2023/05/09 10:30:27;;;;;;;0.00;0.00;;;20.50;75.00;;;;;;5080939;28;20674;-74
2023/05/09 10:33:09;;;;;;;0.10;0.10;;;20.80;73.60;;;;;;5080796;28;20012;-80
2023/05/09 10:35:45;;;;;;;0.10;0.10;;;21.00;73.70;;;;;;5078808;28;20019;-82
2023/05/09 10:38:12;;;;;;;0.10;0.10;;;21.20;72.90;;;;;;5078772;28;20111;-73
2023/05/09 10:40:45;;;;;;;0.10;0.10;;;21.40;71.80;;;;;;5079596;28;20012;-78
2023/05/09 10:43:12;;;;;;;0.20;0.20;;;21.30;72.20;;;;;;5079848;28;20040;-77
2023/05/09 10:45:38;;;;;;;0.10;0.10;;;21.50;71.30;;;;;;5080526;28;20016;-74
2023/05/09 10:48:07;;;;;;;0.10;0.10;;;21.80;71.70;;;;;;5080018;28;20157;-78
2023/05/09 10:50:35;;;;;;;0.10;0.10;;;22.20;75.20;;;;;;5080163;28;20024;-80
2023/05/09 10:53:12;;;;;;;0.55;0.55;;;22.60;69.10;;;;;;5079349;28;20027;-73
2023/05/09 10:55:49;;;;;;;0.10;0.10;;;22.50;70.00;;;;;;5079364;28;20227;-81
2023/05/09 10:58:26;;;;;;;0.10;0.10;;;23.00;69.70;;;;;;5080711;28;20081;-74
2023/05/09 11:00:56;;;;;;;0.10;0.10;;;22.60;68.30;;;;;;5078641;28;20193;-72
2023/05/09 11:03:23;;;;;;;0.10;0.10;;;22.20;68.30;;;;;;5078755;28;20103;-72
2023/05/09 11:05:51;;;;;;;0.10;0.10;;;21.60;69.90;;;;;;5078347;28;20031;-80
2023/05/09 11:08:24;;;;;;;1.15;1.00;;;21.60;71.30;;;;;;5078561;28;20031;-75
2023/05/09 11:10:50;;;;;;;0.10;0.10;;;21.30;71.80;;;;;;5078850;28;20020;-74
2023/05/09 11:13:24;;;;;;;0.30;0.30;;;21.10;72.70;;;;;;5078152;28;20077;-74
2023/05/09 11:15:59;;;;;;;0.10;0.10;;;21.10;72.70;;;;;;5077796;28;20012;-74
2023/05/09 11:18:29;;;;;;;0.10;0.10;;;21.20;72.50;;;;;;5075881;28;20097;-73
2023/05/09 11:20:55;;;;;;;0.10;0.10;;;21.40;72.20;;;;;;5077857;28;20686;-71
2023/05/09 11:23:24;;;;;;;0.10;0.10;;;21.80;72.20;;;;;;5077555;28;20221;-72
2023/05/09 11:25:51;;;;;;;0.10;0.10;;;22.20;71.30;;;;;;5077856;28;20094;-90
2023/05/09 11:28:29;;;;;;;1.10;0.65;;;22.20;72.10;;;;;;5078311;28;20043;-74
2023/05/09 11:31:11;;;;;;;0.10;0.10;;;22.30;71.30;;;;;;5078889;28;20027;-92
2023/05/09 11:33:38;;;;;;;0.10;0.10;;;22.40;70.80;;;;;;5079544;28;20562;-82
2023/05/09 11:36:26;;;;;;;0.10;0.10;;;22.10;70.30;;;;;;5082602;28;20023;-77
2023/05/09 11:39:07;;;;;;;0.20;0.20;;;21.50;71.30;;;;;;5081544;28;20032;-76
2023/05/09 11:42:02;;;;;;;0.30;0.30;;;21.90;73.40;;;;;;5081367;28;20035;-76
2023/05/09 11:44:32;;;;;;;0.10;0.10;;;20.80;73.60;;;;;;5080095;28;20055;-75
2023/05/09 11:46:57;;;;;;;0.10;0.10;;;20.40;74.60;;;;;;5079669;28;20023;-76
2023/05/09 11:49:23;;;;;;;0.00;0.00;;;20.20;75.60;;;;;;5079639;28;20020;-76
2023/05/09 11:51:49;;;;;;;0.10;0.10;;;20.20;76.20;;;;;;5082428;28;20028;-75
2023/05/09 11:54:15;;;;;;;0.10;0.10;;;20.20;76.60;;;;;;5082198;28;20605;-77
2023/05/09 11:56:41;;;;;;;0.10;0.10;;;20.40;76.60;;;;;;5082220;28;20051;-74
2023/05/09 11:59:07;;;;;;;0.10;0.10;;;20.80;75.80;;;;;;5082476;28;20645;-73
2023/05/09 12:01:34;;;;;;;0.10;0.10;;;21.50;74.40;;;;;;5082500;28;20019;-76
2023/05/09 12:04:01;;;;;;;0.10;0.10;;;22.10;72.40;;;;;;5080593;28;20028;-74
2023/05/09 12:06:28;;;;;;;0.10;0.10;;;22.90;72.20;;;;;;5081055;28;20040;-80
2023/05/09 12:08:56;;;;;;;0.17;0.17;;;23.70;69.00;;;;;;5079321;28;20144;-74
2023/05/09 12:11:22;;;;;;;0.00;0.00;;;24.60;66.10;;;;;;5078591;28;20119;-75
2023/05/09 12:13:50;;;;;;;0.10;0.10;;;25.30;65.90;;;;;;5079378;28;20008;-74
2023/05/09 12:16:17;;;;;;;0.00;0.00;;;26.10;63.10;;;;;;5079011;28;20115;-83
2023/05/09 12:18:48;;;;;;;0.00;0.00;;;23.70;60.00;;;;;;5078348;28;20051;-74
2023/05/09 12:21:14;;;;;;;0.22;0.22;;;26.90;57.70;;;;;;5078286;28;20593;-75
2023/05/09 12:23:40;;;;;;;0.00;0.00;;;26.60;57.00;;;;;;5078064;28;20024;-74
2023/05/09 12:26:06;;;;;;;0.03;0.03;;;25.90;58.00;;;;;;5077511;28;20605;-77
2023/05/09 12:28:33;;;;;;;0.00;0.00;;;26.40;58.70;;;;;;5077613;28;20016;-76
2023/05/09 12:30:59;;;;;;;0.00;0.00;;;26.30;57.60;;;;;;5077186;28;20056;-74
2023/05/09 12:33:26;;;;;;;0.05;0.05;;;26.20;57.60;;;;;;5076711;28;20024;-75
2023/05/09 12:36:08;;;;;;;0.10;0.10;;;26.30;57.30;;;;;;5078174;28;20569;-77
2023/05/09 12:38:34;;;;;;;0.38;0.20;;;26.90;57.30;;;;;;5077944;28;20569;-75
2023/05/09 12:41:10;;;;;;;0.00;0.00;;;27.90;56.60;;;;;;5079216;28;20096;-84
2023/05/09 12:43:38;;;;;;;0.05;0.05;;;28.90;54.00;;;;;;5079520;28;20028;-76
2023/05/09 12:46:04;;;;;;;0.15;0.15;;;30.10;53.10;;;;;;5077507;28;20045;-74
2023/05/09 12:48:36;;;;;;;0.20;0.20;;;30.00;51.60;;;;;;5078291;28;20018;-73
2023/05/09 12:51:06;;;;;;;0.43;0.22;;;30.00;51.90;;;;;;5079032;28;20254;-75